createdAt,value
2022-11-01T00:01:26.683Z,94.45
2022-11-01T00:03:53.399Z,96.95
2022-11-01T00:06:19.985Z,89.53
2022-11-01T00:08:46.708Z,86.55
2022-11-01T00:11:16.319Z,92.57
2022-11-01T00:13:45.841Z,87.53
2022-11-01T00:16:13.530Z,102.05
2022-11-01T00:18:40.573Z,85.15
2022-11-01T00:21:07.242Z,94.53
2022-11-01T00:23:34.073Z,84.03
2022-11-01T00:26:01.801Z,83.75
2022-11-01T00:28:29.326Z,84.18
2022-11-01T00:30:57.503Z,81.07
2022-11-01T00:33:25.355Z,79.60
2022-11-01T00:35:52.633Z,78.30
2022-11-01T00:38:19.651Z,70.13
2022-11-01T00:40:46.445Z,80.63
2022-11-01T00:43:13.522Z,73.88
2022-11-01T00:45:42.586Z,83.82
2022-11-01T00:48:09.343Z,83.43
2022-11-01T00:50:36.208Z,74.88
2022-11-01T00:53:03.045Z,71.63
2022-11-01T00:55:29.837Z,77.72
2022-11-01T00:57:56.797Z,81.35
2022-11-01T01:00:24.212Z,73.35
2022-11-01T01:02:51.088Z,80.90
2022-11-01T01:05:18.552Z,99.28
2022-11-01T01:07:45.506Z,77.03
2022-11-01T01:10:12.850Z,78.85
2022-11-01T01:12:39.984Z,75.60
2022-11-01T01:15:08.132Z,74.30
2022-11-01T01:17:34.995Z,75.50
2022-11-01T01:20:01.987Z,71.45
2022-11-01T01:22:28.886Z,74.15
2022-11-01T01:24:56.031Z,72.68
2022-11-01T01:27:22.689Z,78.18
2022-11-01T01:29:49.489Z,83.30
2022-11-01T01:32:18.964Z,75.60
2022-11-01T01:34:45.934Z,75.90
2022-11-01T01:37:15.101Z,77.57
2022-11-01T01:39:42.019Z,70.68
2022-11-01T01:42:28.434Z,78.97
2022-11-01T01:44:55.170Z,76.63
2022-11-01T01:47:28.278Z,78.70
2022-11-01T01:50:12.142Z,65.45
2022-11-01T01:52:50.246Z,73.35
2022-11-01T01:55:22.083Z,72.57
2022-11-01T01:57:49.778Z,65.97
2022-11-01T02:00:16.996Z,67.97
2022-11-01T02:02:43.901Z,80.47
2022-11-01T02:05:18.264Z,65.45
2022-11-01T02:07:45.715Z,70.47
2022-11-01T02:10:14.716Z,76.57
2022-11-01T02:12:47.196Z,73.95
2022-11-01T02:15:14.816Z,70.82
2022-11-01T02:17:44.627Z,73.80
2022-11-01T02:20:21.024Z,78.68
2022-11-01T02:23:19.215Z,78.45
2022-11-01T02:25:58.046Z,79.35
2022-11-01T02:28:33.773Z,78.47
2022-11-01T02:31:35.527Z,75.07
2022-11-01T02:34:12.709Z,72.72
2022-11-01T02:36:48.389Z,82.65
2022-11-01T02:39:26.772Z,74.35
2022-11-01T02:42:04.017Z,80.78
2022-11-01T02:44:37.570Z,81.22
2022-11-01T02:47:05.997Z,81.57
2022-11-01T02:49:39.840Z,76.95
2022-11-01T02:52:09.040Z,81.30
2022-11-01T02:54:42.668Z,76.22
2022-11-01T02:57:44.103Z,81.05
2022-11-01T03:00:20.835Z,76.25
2022-11-01T03:02:50.993Z,80.95
2022-11-01T03:05:26.908Z,79.47
2022-11-01T03:08:02.344Z,90.63
2022-11-01T03:10:43.306Z,85.28
2022-11-01T03:13:17.530Z,80.47
2022-11-01T03:15:57.051Z,89.28
2022-11-01T03:18:32.312Z,94.90
2022-11-01T03:21:15.552Z,90.50
2022-11-01T03:24:38.137Z,94.40
2022-11-01T03:27:10.752Z,88.55
2022-11-01T03:29:38.940Z,93.05
2022-11-01T03:32:07.575Z,90.82
2022-11-01T03:34:36.930Z,95.88
2022-11-01T03:37:07.694Z,95.97
2022-11-01T03:39:47.929Z,96.38
2022-11-01T03:42:21.784Z,93.25
2022-11-01T03:44:56.038Z,95.30
2022-11-01T03:47:22.788Z,97.47
2022-11-01T03:50:12.861Z,99.10
2022-11-01T03:52:39.646Z,102.35
2022-11-01T03:55:18.154Z,100.63
2022-11-01T03:57:56.023Z,97.50
2022-11-01T04:02:57.664Z,112.20
2022-11-01T04:05:26.692Z,101.25
2022-11-01T04:07:53.972Z,102.97
2022-11-01T04:10:25.161Z,104.00
2022-11-01T04:12:53.014Z,102.85
2022-11-01T04:15:40.301Z,98.63
2022-11-01T04:18:32.849Z,110.60
2022-11-01T04:21:03.402Z,104.00
2022-11-01T04:23:30.452Z,104.32
2022-11-01T04:25:57.278Z,104.45
2022-11-01T04:28:24.021Z,102.20
2022-11-01T04:30:51.248Z,91.20
2022-11-01T04:33:18.064Z,105.47
2022-11-01T04:35:45.379Z,100.15
2022-11-01T04:38:12.946Z,101.93
2022-11-01T04:40:41.030Z,109.72
2022-11-01T04:43:07.891Z,96.40
2022-11-01T04:45:34.579Z,97.60
2022-11-01T04:48:04.122Z,101.95
2022-11-01T04:50:31.149Z,100.43
2022-11-01T04:53:00.148Z,90.95
2022-11-01T04:55:28.035Z,97.95
2022-11-01T04:57:54.926Z,90.82
2022-11-01T05:00:23.083Z,105.68
2022-11-01T05:02:50.227Z,92.03
2022-11-01T05:05:17.461Z,98.38
2022-11-01T05:07:44.358Z,100.75
2022-11-01T05:10:11.883Z,104.22
2022-11-01T05:12:38.617Z,84.00
2022-11-01T05:15:06.236Z,95.75
2022-11-01T05:17:32.983Z,97.45
2022-11-01T05:19:59.640Z,82.72
2022-11-01T05:22:26.383Z,92.90
2022-11-01T05:24:53.475Z,92.47
2022-11-01T05:27:20.151Z,87.55
2022-11-01T05:29:46.855Z,93.28
2022-11-01T05:32:13.495Z,81.13
2022-11-01T05:34:40.149Z,87.43
2022-11-01T05:37:06.857Z,84.97
2022-11-01T05:39:33.559Z,86.40
2022-11-01T05:42:02.905Z,87.70
2022-11-01T05:44:29.818Z,89.47
2022-11-01T05:46:56.539Z,83.93
2022-11-01T05:49:24.577Z,79.20
2022-11-01T05:51:51.279Z,83.85
2022-11-01T05:54:17.903Z,84.07
2022-11-01T05:56:44.644Z,84.18
2022-11-01T05:59:11.374Z,81.90
2022-11-01T06:01:41.428Z,79.68
2022-11-01T06:04:08.506Z,83.88
2022-11-01T06:06:35.297Z,80.20
2022-11-01T06:09:02.983Z,80.40
2022-11-01T06:11:29.875Z,82.68
2022-11-01T06:13:58.112Z,79.97
2022-11-01T06:16:26.299Z,77.00
2022-11-01T06:18:53.645Z,79.43
2022-11-01T06:21:26.045Z,81.15
2022-11-01T06:23:55.938Z,73.75
2022-11-01T06:26:22.557Z,76.65
2022-11-01T06:28:49.308Z,75.85
2022-11-01T06:31:16.302Z,81.22
2022-11-01T06:33:42.980Z,75.40
2022-11-01T06:36:09.813Z,78.07
2022-11-01T06:38:36.534Z,76.05
2022-11-01T06:41:03.250Z,80.63
2022-11-01T06:43:29.918Z,79.97
2022-11-01T06:46:00.637Z,77.72
2022-11-01T06:48:28.617Z,76.60
2022-11-01T06:50:55.986Z,75.82
2022-11-01T06:53:23.860Z,80.75
2022-11-01T06:55:52.242Z,75.22
2022-11-01T06:58:20.501Z,77.18
2022-11-01T07:00:47.281Z,74.57
2022-11-01T07:03:14.859Z,80.63
2022-11-01T07:05:42.097Z,82.50
2022-11-01T07:08:12.753Z,78.43
2022-11-01T07:10:43.182Z,76.75
2022-11-01T07:13:12.691Z,76.40
2022-11-01T07:15:39.586Z,83.05
2022-11-01T07:18:08.764Z,76.22
2022-11-01T07:20:41.878Z,82.50
2022-11-01T07:23:14.418Z,77.68
2022-11-01T07:25:41.721Z,80.03
2022-11-01T07:28:09.039Z,72.70
2022-11-01T07:30:35.974Z,70.97
2022-11-01T07:33:04.884Z,80.72
2022-11-01T07:35:31.972Z,86.50
2022-11-01T07:38:01.148Z,83.13
2022-11-01T07:40:29.962Z,71.65
2022-11-01T07:42:59.863Z,73.97
2022-11-01T07:45:28.905Z,67.43
2022-11-01T07:48:07.022Z,75.28
2022-11-01T07:50:34.538Z,70.85
2022-11-01T07:53:05.612Z,73.32
2022-11-01T07:55:32.805Z,75.22
2022-11-01T07:58:00.012Z,67.65
2022-11-01T08:00:26.946Z,66.97
2022-11-01T08:03:01.253Z,71.65
2022-11-01T08:05:28.871Z,69.45
2022-11-01T08:07:55.834Z,64.65
2022-11-01T08:10:22.574Z,62.38
2022-11-01T08:12:49.276Z,68.43
2022-11-01T08:15:16.250Z,63.92
2022-11-01T08:17:42.982Z,60.90
2022-11-01T08:20:10.461Z,66.85
2022-11-01T08:22:43.042Z,65.20
2022-11-01T08:25:09.953Z,67.18
2022-11-01T08:27:36.737Z,65.30
2022-11-01T08:30:04.049Z,67.45
2022-11-01T08:32:30.815Z,58.83
2022-11-01T08:34:57.484Z,64.97
2022-11-01T08:37:24.177Z,62.17
2022-11-01T08:39:50.760Z,66.93
2022-11-01T08:42:17.518Z,64.28
2022-11-01T08:44:44.211Z,63.33
2022-11-01T08:47:11.601Z,59.42
2022-11-01T08:49:38.282Z,59.03
2022-11-01T08:52:05.950Z,63.75
2022-11-01T08:54:34.220Z,61.03
2022-11-01T08:57:02.629Z,58.85
2022-11-01T08:59:29.519Z,62.05
2022-11-01T09:01:56.353Z,57.67
2022-11-01T09:04:23.118Z,62.05
2022-11-01T09:06:49.755Z,58.00
2022-11-01T09:09:16.496Z,57.80
2022-11-01T09:11:43.175Z,61.85
2022-11-01T09:14:09.974Z,60.25
2022-11-01T09:16:36.601Z,65.88
2022-11-01T09:19:03.480Z,64.45
2022-11-01T09:21:32.049Z,69.80
2022-11-01T09:23:59.216Z,64.60
2022-11-01T09:26:29.196Z,63.40
2022-11-01T09:28:58.833Z,65.20
2022-11-01T09:31:26.026Z,66.88
2022-11-01T09:33:55.115Z,63.65
2022-11-01T09:36:22.008Z,64.20
2022-11-01T09:38:48.753Z,65.65
2022-11-01T09:41:24.309Z,64.18
2022-11-01T09:43:53.213Z,63.00
2022-11-01T09:46:25.797Z,68.13
2022-11-01T09:48:55.444Z,66.25
2022-11-01T09:51:24.203Z,62.58
2022-11-01T09:53:54.185Z,54.25
2022-11-01T09:56:30.454Z,56.60
2022-11-01T09:59:21.543Z,62.60
2022-11-01T10:02:19.010Z,60.03
2022-11-01T10:05:13.193Z,51.90
2022-11-01T10:08:15.260Z,52.17
2022-11-01T10:10:57.483Z,50.78
2022-11-01T10:13:52.063Z,47.97
2022-11-01T10:16:43.959Z,48.55
2022-11-01T10:19:17.609Z,46.08
2022-11-01T10:21:46.714Z,47.13
2022-11-01T10:24:31.799Z,43.65
2022-11-01T10:27:34.603Z,45.25
2022-11-01T10:30:04.541Z,44.25
2022-11-01T10:32:34.934Z,41.75
2022-11-01T10:35:12.320Z,45.30
2022-11-01T10:38:03.998Z,49.65
2022-11-01T10:41:04.019Z,42.15
2022-11-01T10:43:34.732Z,40.85
2022-11-01T10:46:03.884Z,45.10
2022-11-01T10:48:38.341Z,43.60
2022-11-01T10:51:07.835Z,43.10
2022-11-01T10:53:45.798Z,43.05
2022-11-01T10:56:23.003Z,45.38
2022-11-01T10:59:06.058Z,42.13
2022-11-01T11:01:39.127Z,41.67
2022-11-01T11:04:11.380Z,40.13
2022-11-01T11:06:40.274Z,35.97
2022-11-01T11:09:08.572Z,34.92
2022-11-01T11:11:40.841Z,38.70
2022-11-01T11:14:09.978Z,30.77
2022-11-01T11:16:44.625Z,34.35
2022-11-01T11:19:12.086Z,34.42
2022-11-01T11:21:38.856Z,37.00
2022-11-01T11:24:05.874Z,32.13
2022-11-01T11:26:39.182Z,32.97
2022-11-01T11:29:06.182Z,32.88
2022-11-01T11:31:34.861Z,36.67
2022-11-01T11:34:23.728Z,31.48
2022-11-01T11:36:53.592Z,34.42
2022-11-01T11:39:25.148Z,32.45
2022-11-01T11:41:51.943Z,27.75
2022-11-01T11:44:39.402Z,30.75
2022-11-01T11:47:21.260Z,28.88
2022-11-01T11:49:50.305Z,29.05
2022-11-01T11:52:22.463Z,26.80
2022-11-01T11:54:53.959Z,29.30
2022-11-01T11:57:26.779Z,27.05
2022-11-01T12:00:06.033Z,25.75
2022-11-01T12:02:38.575Z,30.77
2022-11-01T12:05:16.074Z,27.40
2022-11-01T12:07:52.500Z,25.75
2022-11-01T12:10:38.826Z,24.90
2022-11-01T12:13:33.486Z,26.17
2022-11-01T12:16:24.425Z,24.60
2022-11-01T12:19:00.937Z,30.33
2022-11-01T12:21:35.896Z,27.55
2022-11-01T12:24:23.986Z,26.60
2022-11-01T12:26:54.187Z,26.95
2022-11-01T12:29:27.015Z,25.95
2022-11-01T12:31:57.333Z,24.77
2022-11-01T12:34:31.006Z,25.52
2022-11-01T12:37:03.085Z,27.75
2022-11-01T12:39:57.451Z,24.60
2022-11-01T12:42:28.693Z,23.65
2022-11-01T12:45:15.445Z,30.75
2022-11-01T12:47:48.284Z,25.98
2022-11-01T12:50:26.729Z,25.23
2022-11-01T12:53:17.540Z,23.10
2022-11-01T12:55:44.308Z,20.60
2022-11-01T12:58:15.964Z,22.63
2022-11-01T13:01:06.511Z,26.42
2022-11-01T13:03:58.060Z,22.70
2022-11-01T13:06:43.641Z,16.75
2022-11-01T13:09:32.473Z,19.90
2022-11-01T13:12:10.185Z,15.68
2022-11-01T13:17:16.800Z,16.35
2022-11-01T13:19:59.240Z,14.82
2022-11-01T13:22:51.119Z,16.90
2022-11-01T13:25:31.119Z,15.02
2022-11-01T13:28:17.248Z,13.75
2022-11-01T13:30:54.893Z,11.82
2022-11-01T13:33:41.282Z,12.48
2022-11-01T13:36:31.469Z,14.15
2022-11-01T13:39:15.053Z,10.13
2022-11-01T13:41:59.787Z,11.38
2022-11-01T13:44:32.383Z,10.55
2022-11-01T13:47:20.646Z,10.93
2022-11-01T13:50:18.342Z,9.75
2022-11-01T13:52:57.856Z,8.10
2022-11-01T13:55:38.083Z,11.60
2022-11-01T13:58:08.450Z,8.23
2022-11-01T14:00:48.878Z,7.47
2022-11-01T14:03:25.470Z,7.85
2022-11-01T14:06:33.240Z,8.38
2022-11-01T14:09:19.457Z,6.97
2022-11-01T14:11:50.007Z,9.13
2022-11-01T14:14:32.071Z,5.30
2022-11-01T14:17:20.575Z,12.77
2022-11-01T14:19:48.395Z,6.72
2022-11-01T14:22:28.334Z,5.72
2022-11-01T14:24:59.676Z,6.32
2022-11-01T14:27:32.196Z,6.97
2022-11-01T14:29:58.926Z,7.40
2022-11-01T14:32:29.813Z,7.05
2022-11-01T14:35:33.841Z,6.55
2022-11-01T14:38:05.039Z,4.78
2022-11-01T14:40:54.050Z,6.85
2022-11-01T14:43:42.956Z,7.95
2022-11-01T14:46:15.931Z,7.95
2022-11-01T14:48:49.297Z,5.97
2022-11-01T14:51:30.712Z,6.97
2022-11-01T14:54:13.482Z,8.98
2022-11-01T14:56:41.324Z,7.38
2022-11-01T14:59:20.388Z,5.60
2022-11-01T15:01:50.147Z,5.80
2022-11-01T15:04:27.386Z,8.20
2022-11-01T15:06:53.981Z,4.82
2022-11-01T15:09:24.263Z,7.68
2022-11-01T15:11:53.708Z,6.90
2022-11-01T15:14:35.362Z,8.60
2022-11-01T15:17:02.215Z,5.75
2022-11-01T15:19:36.122Z,5.45
2022-11-01T15:22:03.668Z,5.57
2022-11-01T15:24:33.456Z,8.00
2022-11-01T15:27:08.527Z,6.28
2022-11-01T15:29:36.502Z,7.03
2022-11-01T15:32:04.075Z,5.18
2022-11-01T15:34:34.338Z,9.30
2022-11-01T15:37:18.478Z,6.40
2022-11-01T15:39:45.201Z,9.20
2022-11-01T15:42:16.721Z,10.65
2022-11-01T15:47:21.152Z,8.63
2022-11-01T15:49:51.227Z,6.68
2022-11-01T15:52:24.010Z,7.22
2022-11-01T15:55:06.950Z,5.75
2022-11-01T15:57:41.634Z,10.93
2022-11-01T16:00:18.811Z,10.50
2022-11-01T16:02:49.860Z,9.88
2022-11-01T16:05:20.691Z,9.57
2022-11-01T16:07:48.683Z,10.20
2022-11-01T16:10:30.214Z,9.00
2022-11-01T16:12:59.883Z,10.60
2022-11-01T16:15:34.467Z,11.43
2022-11-01T16:18:13.980Z,6.30
2022-11-01T16:20:41.305Z,10.00
2022-11-01T16:23:12.612Z,14.77
2022-11-01T16:25:39.868Z,8.23
2022-11-01T16:28:09.530Z,13.18
2022-11-01T16:30:39.312Z,11.82
2022-11-01T16:33:25.122Z,11.70
2022-11-01T16:36:20.511Z,11.43
2022-11-01T16:38:51.982Z,17.05
2022-11-01T16:41:37.951Z,13.80
2022-11-01T16:44:16.820Z,12.90
2022-11-01T16:46:44.279Z,16.48
2022-11-01T16:49:14.124Z,12.63
2022-11-01T16:51:41.346Z,14.52
2022-11-01T16:54:12.778Z,10.13
2022-11-01T16:56:52.891Z,9.48
2022-11-01T16:59:23.791Z,12.35
2022-11-01T17:01:52.292Z,9.30
2022-11-01T17:04:19.532Z,7.88
2022-11-01T17:06:46.455Z,6.18
2022-11-01T17:09:15.300Z,12.57
2022-11-01T17:11:47.848Z,8.85
2022-11-01T17:14:18.432Z,10.13
2022-11-01T17:16:47.597Z,7.90
2022-11-01T17:19:25.888Z,10.02
2022-11-01T17:21:53.801Z,8.55
2022-11-01T17:24:24.382Z,8.95
2022-11-01T17:26:52.492Z,6.93
2022-11-01T17:29:19.375Z,8.38
2022-11-01T17:31:46.171Z,4.97
2022-11-01T17:34:12.964Z,6.72
2022-11-01T17:36:43.691Z,6.95
2022-11-01T17:39:11.158Z,8.13
2022-11-01T17:41:38.023Z,7.93
2022-11-01T17:44:04.942Z,7.00
2022-11-01T17:46:31.676Z,8.80
2022-11-01T17:48:58.561Z,8.80
2022-11-01T17:51:25.364Z,9.82
2022-11-01T17:53:55.781Z,6.15
2022-11-01T17:56:24.010Z,7.57
2022-11-01T17:58:53.714Z,8.27
2022-11-01T18:01:21.992Z,6.57
2022-11-01T18:03:49.277Z,10.98
2022-11-01T18:06:16.556Z,11.05
2022-11-01T18:08:46.656Z,6.68
2022-11-01T18:11:44.658Z,11.05
2022-11-01T18:14:35.872Z,8.50
2022-11-01T18:17:17.483Z,4.57
2022-11-01T18:20:09.330Z,9.63
2022-11-01T18:22:53.386Z,6.90
2022-11-01T18:25:30.636Z,9.00
2022-11-01T18:28:01.454Z,8.27
2022-11-01T18:30:28.432Z,6.03
2022-11-01T18:33:02.886Z,10.93
2022-11-01T18:35:44.368Z,7.40
2022-11-01T18:38:17.956Z,10.55
2022-11-01T18:41:01.417Z,7.97
2022-11-01T18:43:39.301Z,8.13
2022-11-01T18:46:26.396Z,10.40
2022-11-01T18:49:00.551Z,10.00
2022-11-01T18:51:30.114Z,10.13
2022-11-01T18:54:09.331Z,14.15
2022-11-01T18:56:40.313Z,11.07
2022-11-01T18:59:19.445Z,11.43
2022-11-01T19:01:50.567Z,7.30
2022-11-01T19:04:22.066Z,10.32
2022-11-01T19:06:49.056Z,8.90
2022-11-01T19:09:29.578Z,8.05
2022-11-01T19:12:14.152Z,9.32
2022-11-01T19:14:43.061Z,8.43
2022-11-01T19:17:27.103Z,8.65
2022-11-01T19:19:56.186Z,8.57
2022-11-01T19:22:29.187Z,12.85
2022-11-01T19:24:56.022Z,8.90
2022-11-01T19:27:23.220Z,10.38
2022-11-01T19:29:57.604Z,11.63
2022-11-01T19:32:25.404Z,8.90
2022-11-01T19:34:54.104Z,10.43
2022-11-01T19:37:33.169Z,6.05
2022-11-01T19:40:12.955Z,9.13
2022-11-01T19:42:39.813Z,6.28
2022-11-01T19:45:25.824Z,9.05
2022-11-01T19:47:52.686Z,11.00
2022-11-01T19:50:25.182Z,7.43
2022-11-01T19:52:56.437Z,9.75
2022-11-01T19:55:51.971Z,7.70
2022-11-01T19:58:22.665Z,9.70
2022-11-01T20:00:49.797Z,9.13
2022-11-01T20:03:44.392Z,8.52
2022-11-01T20:06:15.557Z,9.50
2022-11-01T20:08:45.080Z,8.57
2022-11-01T20:11:13.070Z,11.93
2022-11-01T20:13:40.397Z,7.68
2022-11-01T20:16:07.667Z,8.10
2022-11-01T20:18:34.566Z,10.63
2022-11-01T20:21:05.931Z,11.10
2022-11-01T20:23:34.051Z,7.45
2022-11-01T20:26:02.020Z,7.78
2022-11-01T20:28:28.750Z,10.07
2022-11-01T20:30:56.081Z,9.02
2022-11-01T20:33:24.198Z,9.30
2022-11-01T20:35:51.343Z,6.93
2022-11-01T20:40:50.101Z,10.75
2022-11-01T20:43:16.847Z,9.48
2022-11-01T20:45:43.517Z,11.63
2022-11-01T20:48:10.221Z,10.20
2022-11-01T20:50:36.947Z,9.38
2022-11-01T20:53:05.606Z,7.82
2022-11-01T20:55:33.744Z,8.82
2022-11-01T20:58:00.586Z,7.43
2022-11-01T21:00:31.799Z,7.25
2022-11-01T21:03:01.023Z,8.07
2022-11-01T21:05:29.921Z,4.63
2022-11-01T21:08:14.963Z,9.27
2022-11-01T21:10:43.275Z,7.07
2022-11-01T21:13:22.295Z,7.63
2022-11-01T21:15:49.491Z,9.55
2022-11-01T21:18:16.301Z,10.18
2022-11-01T21:20:47.853Z,7.85
2022-11-01T21:23:35.577Z,12.13
2022-11-01T21:26:11.687Z,7.60
2022-11-01T21:28:40.012Z,17.00
2022-11-01T21:31:09.831Z,6.65
2022-11-01T21:33:43.732Z,6.28
2022-11-01T21:36:34.967Z,8.93
2022-11-01T21:39:25.418Z,8.77
2022-11-01T21:42:03.579Z,8.80
2022-11-01T21:44:45.478Z,7.65
2022-11-01T21:47:29.832Z,8.23
2022-11-01T21:52:23.557Z,6.95
2022-11-01T21:54:50.904Z,8.70
2022-11-01T21:57:17.635Z,7.32
2022-11-01T21:59:44.593Z,9.38
2022-11-01T22:02:13.269Z,5.25
2022-11-01T22:04:40.818Z,8.52
2022-11-01T22:07:08.720Z,8.68
2022-11-01T22:09:35.948Z,6.15
2022-11-01T22:12:03.471Z,8.38
2022-11-01T22:14:30.469Z,10.70
2022-11-01T22:16:57.205Z,6.72
2022-11-01T22:19:24.230Z,7.50
2022-11-01T22:21:50.955Z,8.15
2022-11-01T22:24:17.606Z,7.43
2022-11-01T22:26:44.353Z,9.48
2022-11-01T22:29:11.080Z,7.03
2022-11-01T22:31:37.910Z,7.35
2022-11-01T22:34:04.843Z,6.43
2022-11-01T22:36:39.333Z,10.77
2022-11-01T22:39:18.381Z,8.65
2022-11-01T22:41:45.266Z,9.02
2022-11-01T22:44:14.534Z,10.98
2022-11-01T22:47:27.092Z,10.25
2022-11-01T22:49:56.004Z,6.38
2022-11-01T22:52:22.686Z,7.97
2022-11-01T22:54:58.754Z,8.88
2022-11-01T22:57:28.899Z,10.73
2022-11-01T23:00:15.883Z,10.13
2022-11-01T23:02:42.958Z,7.25
2022-11-01T23:05:10.387Z,9.25
2022-11-01T23:07:42.985Z,11.00
2022-11-01T23:10:25.084Z,12.68
2022-11-01T23:13:16.935Z,8.27
2022-11-01T23:15:45.699Z,10.93
2022-11-01T23:18:15.650Z,6.40
2022-11-01T23:20:43.269Z,6.68
2022-11-01T23:23:19.832Z,8.15
2022-11-01T23:25:47.392Z,5.47
2022-11-01T23:28:15.063Z,10.00
2022-11-01T23:30:43.500Z,8.05
2022-11-01T23:33:15.352Z,6.43
2022-11-01T23:35:44.029Z,10.30
2022-11-01T23:39:00.544Z,11.40
2022-11-01T23:41:34.875Z,10.38
2022-11-01T23:44:10.760Z,6.55
2022-11-01T23:46:37.462Z,6.85
2022-11-01T23:49:23.558Z,6.85
2022-11-01T23:51:50.931Z,8.85
2022-11-01T23:54:35.024Z,9.95
2022-11-01T23:57:02.112Z,9.68
2022-11-01T23:59:28.933Z,8.07
